createdAt,value
2018-09-11T00:02:12.585Z,16.86
2018-09-11T00:07:07.461Z,16.70
2018-09-11T00:12:02.368Z,16.99
2018-09-11T00:16:57.311Z,17.00
2018-09-11T00:21:52.222Z,16.80
2018-09-11T00:26:47.118Z,16.75
2018-09-11T00:31:42.166Z,16.66
2018-09-11T00:36:37.121Z,16.35
2018-09-11T00:41:31.989Z,16.24
2018-09-11T00:46:26.861Z,16.53
2018-09-11T00:51:21.736Z,16.62
2018-09-11T00:56:16.585Z,16.70
2018-09-11T01:01:11.558Z,16.72
2018-09-11T01:06:06.490Z,16.63
2018-09-11T01:11:01.358Z,16.56
2018-09-11T01:15:56.242Z,16.50
2018-09-11T01:20:51.197Z,16.30
2018-09-11T01:25:46.087Z,16.01
2018-09-11T01:30:41.046Z,16.04
2018-09-11T01:35:35.925Z,16.27
2018-09-11T01:40:30.836Z,15.97
2018-09-11T01:45:25.811Z,15.97
2018-09-11T01:50:20.687Z,15.80
2018-09-11T01:55:15.577Z,16.23
2018-09-11T02:00:20.273Z,16.27
2018-09-11T02:05:15.159Z,16.24
2018-09-11T02:10:09.976Z,16.00
2018-09-11T02:15:04.893Z,15.79
2018-09-11T02:19:59.711Z,15.75
2018-09-11T02:24:54.486Z,15.76
2018-09-11T02:29:49.251Z,15.90
2018-09-11T02:34:43.990Z,15.67
2018-09-11T02:39:38.879Z,15.35
2018-09-11T02:44:33.766Z,15.32
2018-09-11T02:49:28.618Z,15.43
2018-09-11T02:54:23.471Z,15.84
2018-09-11T02:59:18.397Z,16.08
2018-09-11T03:04:13.249Z,16.11
2018-09-11T03:09:08.265Z,15.81
2018-09-11T03:14:03.129Z,15.70
2018-09-11T03:18:58.003Z,15.65
2018-09-11T03:23:52.938Z,15.73
2018-09-11T03:28:47.934Z,15.32
2018-09-11T03:33:42.781Z,15.54
2018-09-11T03:38:37.673Z,15.46
2018-09-11T03:43:32.593Z,15.41
2018-09-11T03:48:27.437Z,15.39
2018-09-11T03:53:22.296Z,15.37
2018-09-11T03:58:18.241Z,15.12
2018-09-11T04:03:13.165Z,15.03
2018-09-11T04:08:08.030Z,15.13
2018-09-11T04:13:02.874Z,15.19
2018-09-11T04:17:57.801Z,15.13
2018-09-11T04:22:52.715Z,15.06
2018-09-11T04:27:47.579Z,15.10
2018-09-11T04:32:43.395Z,14.86
2018-09-11T04:37:38.241Z,15.11
2018-09-11T04:42:33.147Z,15.09
2018-09-11T04:47:28.179Z,14.97
2018-09-11T04:52:23.082Z,14.78
2018-09-11T04:57:17.989Z,14.93
2018-09-11T05:02:12.864Z,14.81
2018-09-11T05:07:08.079Z,14.98
2018-09-11T05:12:03.025Z,14.85
2018-09-11T05:16:57.858Z,14.94
2018-09-11T05:21:52.897Z,14.93
2018-09-11T05:26:47.790Z,14.94
2018-09-11T05:31:42.666Z,14.99
2018-09-11T05:36:37.570Z,14.87
2018-09-11T05:41:32.462Z,14.74
2018-09-11T05:46:27.294Z,14.82
2018-09-11T05:51:22.221Z,15.26
2018-09-11T05:56:17.057Z,15.23
2018-09-11T06:01:11.929Z,15.34
2018-09-11T06:06:06.834Z,15.47
2018-09-11T06:11:01.689Z,15.68
2018-09-11T06:15:56.434Z,15.87
2018-09-11T06:20:51.241Z,16.04
2018-09-11T06:25:46.111Z,16.19
2018-09-11T06:30:40.942Z,16.29
2018-09-11T06:35:35.857Z,16.40
2018-09-11T06:40:30.813Z,16.47
2018-09-11T06:45:25.723Z,16.56
2018-09-11T06:50:20.638Z,16.66
2018-09-11T06:55:15.905Z,16.78
2018-09-11T07:00:10.840Z,16.96
2018-09-11T07:05:05.806Z,17.13
2018-09-11T07:10:00.673Z,17.28
2018-09-11T07:14:55.538Z,17.51
2018-09-11T07:19:50.549Z,17.69
2018-09-11T07:24:45.430Z,17.91
2018-09-11T07:29:40.387Z,18.23
2018-09-11T07:34:35.393Z,18.55
2018-09-11T07:39:30.278Z,18.90
2018-09-11T07:44:25.483Z,19.24
2018-09-11T07:49:20.310Z,19.46
2018-09-11T07:54:15.231Z,19.83
2018-09-11T07:59:10.162Z,20.10
2018-09-11T08:04:05.128Z,20.51
2018-09-11T08:09:00.066Z,20.97
2018-09-11T08:13:55.157Z,21.13
2018-09-11T08:18:50.020Z,21.31
2018-09-11T08:23:44.917Z,21.49
2018-09-11T08:28:39.850Z,21.95
2018-09-11T08:33:34.717Z,22.34
2018-09-11T08:38:29.481Z,22.08
2018-09-11T08:43:24.245Z,22.34
2018-09-11T08:48:19.073Z,22.41
2018-09-11T08:53:13.860Z,22.72
2018-09-11T08:58:08.671Z,22.92
2018-09-11T09:03:03.541Z,23.25
2018-09-11T09:07:58.396Z,23.30
2018-09-11T09:12:53.286Z,23.56
2018-09-11T09:17:48.185Z,23.50
2018-09-11T09:22:43.024Z,23.64
2018-09-11T09:27:37.973Z,23.59
2018-09-11T09:32:32.869Z,23.76
2018-09-11T09:37:27.885Z,23.91
2018-09-11T09:42:22.903Z,24.26
2018-09-11T09:47:17.834Z,24.38
2018-09-11T09:52:12.705Z,24.36
2018-09-11T09:57:07.625Z,24.47
2018-09-11T10:02:04.701Z,24.99
2018-09-11T10:06:59.732Z,25.14
2018-09-11T10:11:54.757Z,25.27
2018-09-11T10:16:49.619Z,25.32
2018-09-11T10:21:44.553Z,25.36
2018-09-11T10:26:39.436Z,25.19
2018-09-11T10:31:34.355Z,25.35
2018-09-11T10:36:29.300Z,25.17
2018-09-11T10:41:30.651Z,25.34
2018-09-11T10:46:25.427Z,25.60
2018-09-11T10:51:20.219Z,25.68
2018-09-11T10:56:15.087Z,25.81
2018-09-11T11:01:09.837Z,25.75
2018-09-11T11:06:04.672Z,25.93
2018-09-11T11:10:59.477Z,26.01
2018-09-11T11:15:54.249Z,26.12
2018-09-11T11:20:49.190Z,26.17
2018-09-11T11:25:44.057Z,26.11
2018-09-11T11:30:38.913Z,26.13
2018-09-11T11:35:33.768Z,26.07
2018-09-11T11:40:28.698Z,26.21
2018-09-11T11:45:23.732Z,26.39
2018-09-11T11:50:18.621Z,26.55
2018-09-11T11:55:13.620Z,26.56
2018-09-11T12:00:08.446Z,26.29
2018-09-11T12:05:03.327Z,26.24
2018-09-11T12:09:58.220Z,26.33
2018-09-11T12:14:52.986Z,26.41
2018-09-11T12:19:47.756Z,26.42
2018-09-11T12:24:42.519Z,26.51
2018-09-11T12:29:37.272Z,26.71
2018-09-11T12:34:32.025Z,26.81
2018-09-11T12:39:26.834Z,26.79
2018-09-11T12:44:21.740Z,26.66
2018-09-11T12:49:20.767Z,26.61
2018-09-11T12:54:15.562Z,26.56
2018-09-11T12:59:10.412Z,26.51
2018-09-11T13:04:05.346Z,26.58
2018-09-11T13:09:00.181Z,26.59
2018-09-11T13:13:54.967Z,26.50
2018-09-11T13:18:49.783Z,26.56
2018-09-11T13:23:47.425Z,26.53
2018-09-11T13:28:42.205Z,26.77
2018-09-11T13:33:37.037Z,26.76
2018-09-11T13:38:31.815Z,26.70
2018-09-11T13:43:26.690Z,26.82
2018-09-11T13:48:21.568Z,26.73
2018-09-11T13:53:16.418Z,26.70
2018-09-11T13:58:11.273Z,26.72
2018-09-11T14:03:06.242Z,26.73
2018-09-11T14:08:01.186Z,26.55
2018-09-11T14:12:56.080Z,26.32
2018-09-11T14:17:50.997Z,26.02
2018-09-11T14:22:45.831Z,25.93
2018-09-11T14:27:40.641Z,25.74
2018-09-11T14:32:35.478Z,25.71
2018-09-11T14:37:30.298Z,25.71
2018-09-11T14:42:25.086Z,25.81
2018-09-11T14:47:19.845Z,25.76
2018-09-11T14:52:14.661Z,25.49
2018-09-11T14:57:09.494Z,25.76
2018-09-11T15:02:04.289Z,25.82
2018-09-11T15:06:59.454Z,25.77
2018-09-11T15:11:54.343Z,25.77
2018-09-11T15:16:49.218Z,25.83
2018-09-11T15:21:44.122Z,25.66
2018-09-11T15:26:39.047Z,25.60
2018-09-11T15:31:33.921Z,25.58
2018-09-11T15:36:28.869Z,25.66
2018-09-11T15:41:23.732Z,25.65
2018-09-11T15:46:18.598Z,25.65
2018-09-11T15:51:13.466Z,25.49
2018-09-11T15:56:08.653Z,25.54
2018-09-11T16:01:03.614Z,25.40
2018-09-11T16:05:58.541Z,25.36
2018-09-11T16:10:53.450Z,25.29
2018-09-11T16:15:48.368Z,25.16
2018-09-11T16:20:43.228Z,25.04
2018-09-11T16:25:38.050Z,25.08
2018-09-11T16:30:32.900Z,25.13
2018-09-11T16:35:28.564Z,25.03
2018-09-11T16:40:23.371Z,24.99
2018-09-11T16:45:18.201Z,25.05
2018-09-11T16:50:13.024Z,24.95
2018-09-11T16:55:07.945Z,24.64
2018-09-11T17:00:02.801Z,24.36
2018-09-11T17:04:57.666Z,24.15
2018-09-11T17:09:52.453Z,23.99
2018-09-11T17:14:47.282Z,23.94
2018-09-11T17:19:42.520Z,23.72
2018-09-11T17:24:40.411Z,23.52
2018-09-11T17:29:35.322Z,23.40
2018-09-11T17:34:30.289Z,23.23
2018-09-11T17:39:25.196Z,22.90
2018-09-11T17:44:20.147Z,22.67
2018-09-11T17:49:15.137Z,22.49
2018-09-11T17:54:09.939Z,22.38
2018-09-11T17:59:05.371Z,22.28
2018-09-11T18:04:00.457Z,22.11
2018-09-11T18:08:55.673Z,21.89
2018-09-11T18:13:52.895Z,21.69
2018-09-11T18:18:47.860Z,21.59
2018-09-11T18:23:42.861Z,21.43
2018-09-11T18:28:37.747Z,21.41
2018-09-11T18:33:32.640Z,21.31
2018-09-11T18:38:27.543Z,21.11
2018-09-11T18:43:22.457Z,20.92
2018-09-11T18:48:17.408Z,20.83
2018-09-11T18:53:12.304Z,20.70
2018-09-11T18:58:07.339Z,20.54
2018-09-11T19:03:03.049Z,20.59
2018-09-11T19:07:58.386Z,20.54
2018-09-11T19:12:53.314Z,20.46
2018-09-11T19:17:48.121Z,20.44
2018-09-11T19:22:43.018Z,20.43
2018-09-11T19:27:37.894Z,20.53
2018-09-11T19:32:32.848Z,20.52
2018-09-11T19:37:27.729Z,20.65
2018-09-11T19:42:22.724Z,20.64
2018-09-11T19:47:17.594Z,20.64
2018-09-11T19:52:12.428Z,20.47
2018-09-11T19:57:07.380Z,20.19
2018-09-11T20:02:02.334Z,19.85
2018-09-11T20:06:57.281Z,20.20
2018-09-11T20:11:52.169Z,20.29
2018-09-11T20:16:47.188Z,20.14
2018-09-11T20:21:42.164Z,19.91
2018-09-11T20:26:37.102Z,19.68
2018-09-11T20:31:32.077Z,19.57
2018-09-11T20:36:27.017Z,19.40
2018-09-11T20:41:22.106Z,19.48
2018-09-11T20:46:17.100Z,19.30
2018-09-11T20:51:11.918Z,19.49
2018-09-11T20:56:06.791Z,19.60
2018-09-11T21:01:01.913Z,19.67
2018-09-11T21:05:56.812Z,19.78
2018-09-11T21:10:51.612Z,19.59
2018-09-11T21:15:46.437Z,19.32
2018-09-11T21:20:41.418Z,19.06
2018-09-11T21:25:36.199Z,19.25
2018-09-11T21:30:31.033Z,19.16
2018-09-11T21:35:25.839Z,18.83
2018-09-11T21:40:20.644Z,18.73
2018-09-11T21:45:15.414Z,18.93
2018-09-11T21:50:10.242Z,18.76
2018-09-11T21:55:05.101Z,18.74
2018-09-11T21:59:59.961Z,18.65
2018-09-11T22:04:54.762Z,18.65
2018-09-11T22:09:49.588Z,18.49
2018-09-11T22:14:44.447Z,18.41
2018-09-11T22:19:39.272Z,18.54
2018-09-11T22:24:34.090Z,18.41
2018-09-11T22:29:28.882Z,18.44
2018-09-11T22:34:23.676Z,18.12
2018-09-11T22:39:18.450Z,18.22
2018-09-11T22:44:13.235Z,18.21
2018-09-11T22:49:08.053Z,18.06
2018-09-11T22:54:02.852Z,18.13
2018-09-11T22:58:57.643Z,18.24
2018-09-11T23:03:52.468Z,18.33
2018-09-11T23:08:47.262Z,18.12
2018-09-11T23:13:42.153Z,18.04
2018-09-11T23:18:36.982Z,18.05
2018-09-11T23:23:31.773Z,17.90
2018-09-11T23:28:26.545Z,17.93
2018-09-11T23:33:21.337Z,17.89
2018-09-11T23:38:16.253Z,17.69
2018-09-11T23:43:11.207Z,17.46
2018-09-11T23:48:06.345Z,17.50
2018-09-11T23:53:01.275Z,17.57
2018-09-11T23:57:56.273Z,17.32
